sensor_id;sensor_type;location;lat;lon;timestamp;pressure;altitude;pressure_sealevel;temperature;humidity
11268;BME280;72685;47.474;9.416;2023-09-30T00:02:22;96361.31;;;17.69;83.21
11268;BME280;72685;47.474;9.416;2023-09-30T00:04:47;96360.25;;;17.61;83.37
11268;BME280;72685;47.474;9.416;2023-09-30T00:07:12;96358.19;;;17.58;84.37
11268;BME280;72685;47.474;9.416;2023-09-30T00:09:38;96359.13;;;17.62;82.10
11268;BME280;72685;47.474;9.416;2023-09-30T00:12:03;96349.91;;;17.63;83.76
11268;BME280;72685;47.474;9.416;2023-09-30T00:14:29;96353.72;;;17.62;84.67
11268;BME280;72685;47.474;9.416;2023-09-30T00:16:55;96359.47;;;17.52;85.21
11268;BME280;72685;47.474;9.416;2023-09-30T00:19:20;96366.00;;;17.51;84.17
11268;BME280;72685;47.474;9.416;2023-09-30T00:21:48;96368.88;;;17.46;83.97
11268;BME280;72685;47.474;9.416;2023-09-30T00:24:13;96367.13;;;17.50;82.93
11268;BME280;72685;47.474;9.416;2023-09-30T00:26:39;96364.88;;;17.52;83.74
11268;BME280;72685;47.474;9.416;2023-09-30T00:29:04;96360.91;;;17.50;84.07
11268;BME280;72685;47.474;9.416;2023-09-30T00:31:31;96371.13;;;17.44;84.15
11268;BME280;72685;47.474;9.416;2023-09-30T00:33:56;96363.81;;;17.44;84.02
11268;BME280;72685;47.474;9.416;2023-09-30T00:36:22;96368.44;;;17.44;83.39
11268;BME280;72685;47.474;9.416;2023-09-30T00:38:47;96363.69;;;17.41;83.99
11268;BME280;72685;47.474;9.416;2023-09-30T00:41:13;96369.22;;;17.44;84.30
11268;BME280;72685;47.474;9.416;2023-09-30T00:43:39;96376.84;;;17.42;82.21
11268;BME280;72685;47.474;9.416;2023-09-30T00:46:16;96373.69;;;17.40;82.31
11268;BME280;72685;47.474;9.416;2023-09-30T00:48:43;96378.44;;;17.43;82.97
11268;BME280;72685;47.474;9.416;2023-09-30T00:51:08;96371.13;;;17.44;83.40
11268;BME280;72685;47.474;9.416;2023-09-30T00:53:34;96362.50;;;17.51;83.03
11268;BME280;72685;47.474;9.416;2023-09-30T00:56:00;96364.09;;;17.52;84.88
11268;BME280;72685;47.474;9.416;2023-09-30T00:58:26;96365.22;;;17.51;84.06
11268;BME280;72685;47.474;9.416;2023-09-30T01:00:56;96366.38;;;17.41;83.29
11268;BME280;72685;47.474;9.416;2023-09-30T01:03:22;96364.78;;;17.40;82.86
11268;BME280;72685;47.474;9.416;2023-09-30T01:05:48;96359.38;;;17.40;83.25
11268;BME280;72685;47.474;9.416;2023-09-30T01:08:15;96356.53;;;17.36;83.84
11268;BME280;72685;47.474;9.416;2023-09-30T01:10:41;96361.03;;;17.32;84.87
11268;BME280;72685;47.474;9.416;2023-09-30T01:13:07;96357.84;;;17.30;83.79
11268;BME280;72685;47.474;9.416;2023-09-30T01:15:32;96357.84;;;17.30;86.48
11268;BME280;72685;47.474;9.416;2023-09-30T01:17:58;96358.00;;;17.34;85.83
11268;BME280;72685;47.474;9.416;2023-09-30T01:20:24;96351.00;;;17.33;84.92
11268;BME280;72685;47.474;9.416;2023-09-30T01:22:49;96350.09;;;17.29;85.89
11268;BME280;72685;47.474;9.416;2023-09-30T01:25:14;96347.69;;;17.27;86.47
11268;BME280;72685;47.474;9.416;2023-09-30T01:27:40;96346.31;;;17.21;89.00
11268;BME280;72685;47.474;9.416;2023-09-30T01:30:06;96342.50;;;17.22;88.86
11268;BME280;72685;47.474;9.416;2023-09-30T01:32:36;96348.69;;;17.23;88.36
11268;BME280;72685;47.474;9.416;2023-09-30T01:35:02;96338.66;;;17.23;87.51
11268;BME280;72685;47.474;9.416;2023-09-30T01:37:27;96339.13;;;17.25;86.57
11268;BME280;72685;47.474;9.416;2023-09-30T01:39:53;96325.63;;;17.25;86.33
11268;BME280;72685;47.474;9.416;2023-09-30T01:42:20;96340.03;;;17.29;86.12
11268;BME280;72685;47.474;9.416;2023-09-30T01:44:46;96337.69;;;17.28;86.19
11268;BME280;72685;47.474;9.416;2023-09-30T01:47:11;96327.81;;;17.32;85.67
11268;BME280;72685;47.474;9.416;2023-09-30T01:49:37;96322.28;;;17.28;84.88
11268;BME280;72685;47.474;9.416;2023-09-30T01:52:03;96328.78;;;17.27;84.58
11268;BME280;72685;47.474;9.416;2023-09-30T01:54:28;96327.69;;;17.28;84.05
11268;BME280;72685;47.474;9.416;2023-09-30T01:56:53;96333.72;;;17.25;83.59
11268;BME280;72685;47.474;9.416;2023-09-30T01:59:19;96330.88;;;17.22;84.19
11268;BME280;72685;47.474;9.416;2023-09-30T02:01:44;96327.38;;;17.21;82.52
11268;BME280;72685;47.474;9.416;2023-09-30T02:04:11;96316.94;;;17.20;82.50
11268;BME280;72685;47.474;9.416;2023-09-30T02:06:43;96322.19;;;17.16;82.21
11268;BME280;72685;47.474;9.416;2023-09-30T02:09:09;96330.59;;;17.15;81.99
11268;BME280;72685;47.474;9.416;2023-09-30T02:11:37;96333.97;;;17.12;81.55
11268;BME280;72685;47.474;9.416;2023-09-30T02:14:03;96332.06;;;17.12;83.39
11268;BME280;72685;47.474;9.416;2023-09-30T02:16:29;96337.75;;;17.11;84.96
11268;BME280;72685;47.474;9.416;2023-09-30T02:18:54;96339.22;;;17.08;84.36
11268;BME280;72685;47.474;9.416;2023-09-30T02:21:20;96332.41;;;17.02;84.34
11268;BME280;72685;47.474;9.416;2023-09-30T02:23:47;96326.81;;;17.07;84.38
11268;BME280;72685;47.474;9.416;2023-09-30T02:26:16;96329.41;;;17.04;84.66
11268;BME280;72685;47.474;9.416;2023-09-30T02:28:42;96332.22;;;17.07;83.69
11268;BME280;72685;47.474;9.416;2023-09-30T02:31:08;96324.25;;;17.11;84.47
11268;BME280;72685;47.474;9.416;2023-09-30T02:33:33;96322.88;;;17.05;84.50
11268;BME280;72685;47.474;9.416;2023-09-30T02:36:03;96312.72;;;17.02;83.34
11268;BME280;72685;47.474;9.416;2023-09-30T02:38:31;96319.56;;;16.99;84.99
11268;BME280;72685;47.474;9.416;2023-09-30T02:40:57;96317.97;;;16.98;83.78
11268;BME280;72685;47.474;9.416;2023-09-30T02:43:22;96314.47;;;16.98;81.96
11268;BME280;72685;47.474;9.416;2023-09-30T02:45:48;96316.41;;;16.97;82.04
11268;BME280;72685;47.474;9.416;2023-09-30T02:48:13;96317.19;;;16.98;82.45
11268;BME280;72685;47.474;9.416;2023-09-30T02:50:44;96329.56;;;16.99;84.69
11268;BME280;72685;47.474;9.416;2023-09-30T02:53:10;96322.72;;;17.01;85.05
11268;BME280;72685;47.474;9.416;2023-09-30T02:55:37;96325.16;;;16.94;85.13
11268;BME280;72685;47.474;9.416;2023-09-30T02:58:02;96326.56;;;16.91;85.96
11268;BME280;72685;47.474;9.416;2023-09-30T03:00:28;96325.19;;;16.85;86.64
11268;BME280;72685;47.474;9.416;2023-09-30T03:03:00;96324.38;;;16.85;86.05
11268;BME280;72685;47.474;9.416;2023-09-30T03:05:27;96329.50;;;16.78;87.07
11268;BME280;72685;47.474;9.416;2023-09-30T03:07:53;96333.81;;;16.70;87.99
11268;BME280;72685;47.474;9.416;2023-09-30T03:10:20;96330.16;;;16.75;87.78
11268;BME280;72685;47.474;9.416;2023-09-30T03:12:47;96329.03;;;16.76;86.25
11268;BME280;72685;47.474;9.416;2023-09-30T03:15:13;96326.66;;;16.74;85.72
11268;BME280;72685;47.474;9.416;2023-09-30T03:17:40;96326.50;;;16.71;86.24
11268;BME280;72685;47.474;9.416;2023-09-30T03:20:06;96333.34;;;16.68;87.26
11268;BME280;72685;47.474;9.416;2023-09-30T03:22:41;96338.41;;;16.70;86.87
11268;BME280;72685;47.474;9.416;2023-09-30T03:25:10;96336.97;;;16.72;86.91
11268;BME280;72685;47.474;9.416;2023-09-30T03:27:36;96337.31;;;16.71;86.44
11268;BME280;72685;47.474;9.416;2023-09-30T03:30:03;96332.88;;;16.66;87.26
11268;BME280;72685;47.474;9.416;2023-09-30T03:32:31;96327.47;;;16.66;87.37
11268;BME280;72685;47.474;9.416;2023-09-30T03:34:59;96335.25;;;16.68;86.39
11268;BME280;72685;47.474;9.416;2023-09-30T03:37:26;96338.25;;;16.66;87.17
11268;BME280;72685;47.474;9.416;2023-09-30T03:39:56;96330.03;;;16.63;87.71
11268;BME280;72685;47.474;9.416;2023-09-30T03:42:22;96336.69;;;16.65;87.21
11268;BME280;72685;47.474;9.416;2023-09-30T03:44:48;96340.00;;;16.71;86.70
11268;BME280;72685;47.474;9.416;2023-09-30T03:47:15;96332.88;;;16.66;86.40
11268;BME280;72685;47.474;9.416;2023-09-30T03:49:41;96319.56;;;16.61;87.65
11268;BME280;72685;47.474;9.416;2023-09-30T03:52:08;96332.25;;;16.61;87.04
11268;BME280;72685;47.474;9.416;2023-09-30T03:54:34;96335.09;;;16.64;86.80
11268;BME280;72685;47.474;9.416;2023-09-30T03:56:59;96341.59;;;16.63;86.82
11268;BME280;72685;47.474;9.416;2023-09-30T03:59:26;96346.56;;;16.61;87.54
11268;BME280;72685;47.474;9.416;2023-09-30T04:01:52;96341.78;;;16.50;88.02
11268;BME280;72685;47.474;9.416;2023-09-30T04:04:19;96344.47;;;16.50;88.38
11268;BME280;72685;47.474;9.416;2023-09-30T04:06:46;96330.22;;;16.49;88.42
11268;BME280;72685;47.474;9.416;2023-09-30T04:09:12;96336.53;;;16.53;87.96
11268;BME280;72685;47.474;9.416;2023-09-30T04:11:38;96331.31;;;16.48;88.65
11268;BME280;72685;47.474;9.416;2023-09-30T04:14:06;96342.91;;;16.49;89.14
11268;BME280;72685;47.474;9.416;2023-09-30T04:16:32;96339.41;;;16.48;88.31
11268;BME280;72685;47.474;9.416;2023-09-30T04:18:58;96341.94;;;16.45;88.17
11268;BME280;72685;47.474;9.416;2023-09-30T04:21:23;96341.50;;;16.42;88.37
11268;BME280;72685;47.474;9.416;2023-09-30T04:23:48;96340.34;;;16.43;87.67
11268;BME280;72685;47.474;9.416;2023-09-30T04:26:14;96338.47;;;16.44;86.48
11268;BME280;72685;47.474;9.416;2023-09-30T04:28:40;96339.25;;;16.45;86.27
11268;BME280;72685;47.474;9.416;2023-09-30T04:31:06;96340.19;;;16.40;87.84
11268;BME280;72685;47.474;9.416;2023-09-30T04:33:33;96336.75;;;16.39;88.99
11268;BME280;72685;47.474;9.416;2023-09-30T04:36:00;96338.78;;;16.34;89.12
11268;BME280;72685;47.474;9.416;2023-09-30T04:38:26;96336.44;;;16.32;89.38
11268;BME280;72685;47.474;9.416;2023-09-30T04:40:52;96323.09;;;16.36;89.84
11268;BME280;72685;47.474;9.416;2023-09-30T04:43:19;96319.75;;;16.39;89.26
11268;BME280;72685;47.474;9.416;2023-09-30T04:45:45;96329.59;;;16.35;89.86
11268;BME280;72685;47.474;9.416;2023-09-30T04:48:11;96319.78;;;16.30;89.69
11268;BME280;72685;47.474;9.416;2023-09-30T04:50:41;96317.69;;;16.27;88.65
11268;BME280;72685;47.474;9.416;2023-09-30T04:53:07;96317.69;;;16.27;88.56
11268;BME280;72685;47.474;9.416;2023-09-30T04:55:34;96306.59;;;16.29;88.21
11268;BME280;72685;47.474;9.416;2023-09-30T04:57:59;96312.31;;;16.36;89.32
11268;BME280;72685;47.474;9.416;2023-09-30T05:00:24;96332.00;;;16.36;88.17
11268;BME280;72685;47.474;9.416;2023-09-30T05:02:51;96342.94;;;16.31;87.95
11268;BME280;72685;47.474;9.416;2023-09-30T05:05:18;96348.66;;;16.30;88.92
11268;BME280;72685;47.474;9.416;2023-09-30T05:07:44;96359.94;;;16.23;90.53
11268;BME280;72685;47.474;9.416;2023-09-30T05:10:11;96357.22;;;16.23;91.27
11268;BME280;72685;47.474;9.416;2023-09-30T05:12:38;96345.97;;;16.30;90.61
11268;BME280;72685;47.474;9.416;2023-09-30T05:15:05;96355.78;;;16.26;90.91
11268;BME280;72685;47.474;9.416;2023-09-30T05:17:33;96354.38;;;16.20;90.48
11268;BME280;72685;47.474;9.416;2023-09-30T05:19:58;96358.19;;;16.19;89.90
11268;BME280;72685;47.474;9.416;2023-09-30T05:22:24;96358.34;;;16.14;90.67
11268;BME280;72685;47.474;9.416;2023-09-30T05:24:52;96353.59;;;16.11;91.01
11268;BME280;72685;47.474;9.416;2023-09-30T05:27:19;96360.06;;;16.18;89.86
11268;BME280;72685;47.474;9.416;2023-09-30T05:29:44;96359.63;;;16.16;89.52
11268;BME280;72685;47.474;9.416;2023-09-30T05:32:10;96367.88;;;16.20;88.77
11268;BME280;72685;47.474;9.416;2023-09-30T05:34:36;96364.84;;;16.21;88.73
11268;BME280;72685;47.474;9.416;2023-09-30T05:37:02;96356.44;;;16.23;88.51
11268;BME280;72685;47.474;9.416;2023-09-30T05:39:28;96358.66;;;16.21;88.77
11268;BME280;72685;47.474;9.416;2023-09-30T05:41:54;96373.09;;;16.16;89.57
11268;BME280;72685;47.474;9.416;2023-09-30T05:44:20;96362.78;;;16.10;89.23
11268;BME280;72685;47.474;9.416;2023-09-30T05:46:46;96367.84;;;16.03;91.25
11268;BME280;72685;47.474;9.416;2023-09-30T05:49:12;96360.28;;;16.05;90.75
11268;BME280;72685;47.474;9.416;2023-09-30T05:51:42;96361.19;;;16.09;91.39
11268;BME280;72685;47.474;9.416;2023-09-30T05:54:08;96376.13;;;16.06;92.09
11268;BME280;72685;47.474;9.416;2023-09-30T05:56:37;96373.41;;;16.15;90.57
11268;BME280;72685;47.474;9.416;2023-09-30T05:59:07;96376.25;;;16.18;89.66
11268;BME280;72685;47.474;9.416;2023-09-30T06:01:32;96378.00;;;16.23;90.07
11268;BME280;72685;47.474;9.416;2023-09-30T06:03:58;96382.78;;;16.17;90.25
11268;BME280;72685;47.474;9.416;2023-09-30T06:06:25;96381.34;;;16.20;89.55
11268;BME280;72685;47.474;9.416;2023-09-30T06:08:51;96382.31;;;16.24;90.15
11268;BME280;72685;47.474;9.416;2023-09-30T06:11:21;96388.81;;;16.23;89.92
11268;BME280;72685;47.474;9.416;2023-09-30T06:13:56;96395.28;;;16.22;90.81
11268;BME280;72685;47.474;9.416;2023-09-30T06:16:25;96392.75;;;16.25;89.68
11268;BME280;72685;47.474;9.416;2023-09-30T06:18:52;96398.94;;;16.34;89.58
11268;BME280;72685;47.474;9.416;2023-09-30T06:21:17;96395.44;;;16.34;89.24
11268;BME280;72685;47.474;9.416;2023-09-30T06:23:47;96392.25;;;16.40;89.10
11268;BME280;72685;47.474;9.416;2023-09-30T06:26:13;96393.84;;;16.50;88.92
11268;BME280;72685;47.474;9.416;2023-09-30T06:28:38;96405.13;;;16.52;88.68
11268;BME280;72685;47.474;9.416;2023-09-30T06:31:07;96411.63;;;16.51;88.71
11268;BME280;72685;47.474;9.416;2023-09-30T06:33:34;96409.56;;;16.57;88.28
11268;BME280;72685;47.474;9.416;2023-09-30T06:36:00;96413.22;;;16.61;88.45
11268;BME280;72685;47.474;9.416;2023-09-30T06:38:27;96412.75;;;16.59;88.38
11268;BME280;72685;47.474;9.416;2023-09-30T06:40:52;96413.84;;;16.66;87.95
11268;BME280;72685;47.474;9.416;2023-09-30T06:43:19;96413.53;;;16.68;89.10
11268;BME280;72685;47.474;9.416;2023-09-30T06:45:45;96418.09;;;16.76;88.98
11268;BME280;72685;47.474;9.416;2023-09-30T06:48:12;96410.97;;;16.80;88.11
11268;BME280;72685;47.474;9.416;2023-09-30T06:50:49;96413.16;;;16.86;87.26
11268;BME280;72685;47.474;9.416;2023-09-30T06:53:15;96406.00;;;16.90;87.63
11268;BME280;72685;47.474;9.416;2023-09-30T06:55:44;96405.81;;;16.96;86.61
11268;BME280;72685;47.474;9.416;2023-09-30T06:58:10;96412.78;;;17.05;86.99
11268;BME280;72685;47.474;9.416;2023-09-30T07:00:36;96430.88;;;17.05;88.41
11268;BME280;72685;47.474;9.416;2023-09-30T07:03:02;96437.13;;;16.97;88.11
11268;BME280;72685;47.474;9.416;2023-09-30T07:05:28;96432.50;;;17.06;87.26
11268;BME280;72685;47.474;9.416;2023-09-30T07:07:54;96425.00;;;17.11;85.21
11268;BME280;72685;47.474;9.416;2023-09-30T07:10:20;96443.59;;;17.13;87.27
11268;BME280;72685;47.474;9.416;2023-09-30T07:12:45;96442.50;;;17.05;86.09
11268;BME280;72685;47.474;9.416;2023-09-30T07:15:11;96446.94;;;17.10;86.03
11268;BME280;72685;47.474;9.416;2023-09-30T07:17:36;96432.59;;;17.18;84.94
11268;BME280;72685;47.474;9.416;2023-09-30T07:20:02;96437.19;;;17.26;83.47
11268;BME280;72685;47.474;9.416;2023-09-30T07:22:30;96438.59;;;17.23;85.13
11268;BME280;72685;47.474;9.416;2023-09-30T07:24:55;96431.41;;;17.36;84.79
11268;BME280;72685;47.474;9.416;2023-09-30T07:27:21;96435.03;;;17.40;84.40
11268;BME280;72685;47.474;9.416;2023-09-30T07:29:46;96429.47;;;17.45;82.87
11268;BME280;72685;47.474;9.416;2023-09-30T07:32:13;96431.03;;;17.46;81.68
11268;BME280;72685;47.474;9.416;2023-09-30T07:34:38;96434.22;;;17.57;81.61
11268;BME280;72685;47.474;9.416;2023-09-30T07:37:04;96431.13;;;17.67;81.28
11268;BME280;72685;47.474;9.416;2023-09-30T07:39:29;96442.75;;;17.67;80.25
11268;BME280;72685;47.474;9.416;2023-09-30T07:41:55;96445.72;;;17.74;80.31
11268;BME280;72685;47.474;9.416;2023-09-30T07:44:21;96452.00;;;17.87;79.86
11268;BME280;72685;47.474;9.416;2023-09-30T07:46:46;96459.78;;;17.88;79.32
11268;BME280;72685;47.474;9.416;2023-09-30T07:49:12;96470.69;;;17.71;79.07
11268;BME280;72685;47.474;9.416;2023-09-30T07:51:37;96478.63;;;17.38;80.61
11268;BME280;72685;47.474;9.416;2023-09-30T07:54:05;96469.16;;;17.62;80.77
11268;BME280;72685;47.474;9.416;2023-09-30T07:56:31;96476.97;;;17.46;79.05
11268;BME280;72685;47.474;9.416;2023-09-30T07:58:56;96481.91;;;17.61;79.78
11268;BME280;72685;47.474;9.416;2023-09-30T08:01:22;96482.00;;;17.65;79.70
11268;BME280;72685;47.474;9.416;2023-09-30T08:03:47;96480.84;;;17.83;79.38
11268;BME280;72685;47.474;9.416;2023-09-30T08:06:13;96490.75;;;17.70;77.89
11268;BME280;72685;47.474;9.416;2023-09-30T08:08:39;96482.97;;;17.69;78.25
11268;BME280;72685;47.474;9.416;2023-09-30T08:11:05;96473.63;;;17.49;78.02
11268;BME280;72685;47.474;9.416;2023-09-30T08:13:32;96472.97;;;17.23;78.69
11268;BME280;72685;47.474;9.416;2023-09-30T08:15:58;96478.91;;;17.45;79.20
11268;BME280;72685;47.474;9.416;2023-09-30T08:18:24;96455.41;;;17.75;78.52
11268;BME280;72685;47.474;9.416;2023-09-30T08:20:49;96463.56;;;17.96;78.14
11268;BME280;72685;47.474;9.416;2023-09-30T08:23:15;96467.16;;;18.09;78.36
11268;BME280;72685;47.474;9.416;2023-09-30T08:25:40;96457.84;;;18.39;75.79
11268;BME280;72685;47.474;9.416;2023-09-30T08:28:05;96450.44;;;18.48;75.76
11268;BME280;72685;47.474;9.416;2023-09-30T08:30:34;96447.00;;;18.80;74.28
11268;BME280;72685;47.474;9.416;2023-09-30T08:33:00;96459.47;;;19.06;73.20
11268;BME280;72685;47.474;9.416;2023-09-30T08:35:25;96465.16;;;19.13;74.01
11268;BME280;72685;47.474;9.416;2023-09-30T08:37:51;96465.63;;;18.82;73.09
11268;BME280;72685;47.474;9.416;2023-09-30T08:40:22;96473.94;;;19.10;73.99
11268;BME280;72685;47.474;9.416;2023-09-30T08:42:52;96468.41;;;19.51;74.20
11268;BME280;72685;47.474;9.416;2023-09-30T08:45:18;96464.22;;;20.02;71.44
11268;BME280;72685;47.474;9.416;2023-09-30T08:47:44;96461.78;;;20.25;69.49
11268;BME280;72685;47.474;9.416;2023-09-30T08:50:11;96474.03;;;19.94;70.90
11268;BME280;72685;47.474;9.416;2023-09-30T08:52:38;96465.22;;;20.10;68.99
11268;BME280;72685;47.474;9.416;2023-09-30T08:55:04;96467.81;;;20.18;69.41
11268;BME280;72685;47.474;9.416;2023-09-30T08:57:30;96471.84;;;20.24;69.83
11268;BME280;72685;47.474;9.416;2023-09-30T08:59:55;96464.25;;;20.54;67.85
11268;BME280;72685;47.474;9.416;2023-09-30T09:02:21;96469.81;;;20.33;66.02
11268;BME280;72685;47.474;9.416;2023-09-30T09:05:03;96457.47;;;20.48;66.82
11268;BME280;72685;47.474;9.416;2023-09-30T09:07:29;96449.00;;;20.37;66.54
11268;BME280;72685;47.474;9.416;2023-09-30T09:10:09;96442.78;;;20.65;66.74
11268;BME280;72685;47.474;9.416;2023-09-30T09:12:37;96434.78;;;20.84;65.92
11268;BME280;72685;47.474;9.416;2023-09-30T09:15:11;96426.84;;;21.06;63.63
11268;BME280;72685;47.474;9.416;2023-09-30T09:17:45;96417.44;;;20.45;63.71
11268;BME280;72685;47.474;9.416;2023-09-30T09:20:21;96419.69;;;20.71;64.80
11268;BME280;72685;47.474;9.416;2023-09-30T09:22:51;96417.00;;;20.86;64.97
11268;BME280;72685;47.474;9.416;2023-09-30T09:25:19;96424.97;;;20.79;65.33
11268;BME280;72685;47.474;9.416;2023-09-30T09:27:45;96420.13;;;21.16;65.33
11268;BME280;72685;47.474;9.416;2023-09-30T09:30:15;96429.22;;;21.08;64.26
11268;BME280;72685;47.474;9.416;2023-09-30T09:33:01;96427.91;;;21.02;64.40
11268;BME280;72685;47.474;9.416;2023-09-30T09:35:28;96425.28;;;21.05;63.25
11268;BME280;72685;47.474;9.416;2023-09-30T09:37:55;96434.81;;;21.43;62.71
11268;BME280;72685;47.474;9.416;2023-09-30T09:40:29;96434.97;;;21.50;62.50
11268;BME280;72685;47.474;9.416;2023-09-30T09:42:55;96437.72;;;21.34;62.93
11268;BME280;72685;47.474;9.416;2023-09-30T09:45:22;96432.59;;;21.17;62.94
11268;BME280;72685;47.474;9.416;2023-09-30T09:47:48;96429.69;;;21.26;62.90
11268;BME280;72685;47.474;9.416;2023-09-30T09:50:14;96432.09;;;21.27;63.95
11268;BME280;72685;47.474;9.416;2023-09-30T09:52:41;96431.09;;;21.20;62.65
11268;BME280;72685;47.474;9.416;2023-09-30T09:55:11;96436.28;;;21.25;62.84
11268;BME280;72685;47.474;9.416;2023-09-30T09:57:37;96435.50;;;21.40;62.08
11268;BME280;72685;47.474;9.416;2023-09-30T10:00:04;96434.66;;;21.86;61.68
11268;BME280;72685;47.474;9.416;2023-09-30T10:02:39;96430.78;;;21.37;61.62
11268;BME280;72685;47.474;9.416;2023-09-30T10:05:04;96434.88;;;21.15;62.83
11268;BME280;72685;47.474;9.416;2023-09-30T10:07:36;96439.19;;;20.88;63.59
11268;BME280;72685;47.474;9.416;2023-09-30T10:10:05;96434.25;;;20.78;64.60
11268;BME280;72685;47.474;9.416;2023-09-30T10:12:38;96434.22;;;20.63;63.96
11268;BME280;72685;47.474;9.416;2023-09-30T10:18:11;96420.56;;;20.75;64.47
11268;BME280;72685;47.474;9.416;2023-09-30T10:20:40;96425.94;;;21.15;63.60
11268;BME280;72685;47.474;9.416;2023-09-30T10:23:28;96428.75;;;21.18;61.11
11268;BME280;72685;47.474;9.416;2023-09-30T10:28:46;96429.69;;;21.41;61.30
11268;BME280;72685;47.474;9.416;2023-09-30T10:31:15;96416.44;;;21.71;58.78
11268;BME280;72685;47.474;9.416;2023-09-30T10:36:34;96410.72;;;21.76;59.06
11268;BME280;72685;47.474;9.416;2023-09-30T10:39:02;96403.97;;;21.70;58.63
11268;BME280;72685;47.474;9.416;2023-09-30T10:46:54;96402.88;;;22.06;57.40
11268;BME280;72685;47.474;9.416;2023-09-30T10:51:59;96397.56;;;21.78;57.26
11268;BME280;72685;47.474;9.416;2023-09-30T10:54:29;96391.25;;;22.09;56.98
11268;BME280;72685;47.474;9.416;2023-09-30T10:56:55;96393.00;;;22.36;56.14
11268;BME280;72685;47.474;9.416;2023-09-30T10:59:25;96389.75;;;22.50;55.78
11268;BME280;72685;47.474;9.416;2023-09-30T11:01:51;96386.97;;;22.46;56.53
11268;BME280;72685;47.474;9.416;2023-09-30T11:04:17;96385.63;;;22.37;56.14
11268;BME280;72685;47.474;9.416;2023-09-30T11:06:44;96385.25;;;22.57;55.63
11268;BME280;72685;47.474;9.416;2023-09-30T11:09:18;96390.13;;;22.48;55.89
11268;BME280;72685;47.474;9.416;2023-09-30T11:11:49;96386.38;;;22.56;53.62
11268;BME280;72685;47.474;9.416;2023-09-30T11:14:25;96378.22;;;22.76;53.57
11268;BME280;72685;47.474;9.416;2023-09-30T11:16:52;96373.47;;;22.92;52.99
11268;BME280;72685;47.474;9.416;2023-09-30T11:19:19;96375.28;;;22.65;55.07
11268;BME280;72685;47.474;9.416;2023-09-30T11:21:49;96371.66;;;22.99;53.51
11268;BME280;72685;47.474;9.416;2023-09-30T11:24:15;96365.53;;;22.83;51.11
11268;BME280;72685;47.474;9.416;2023-09-30T11:26:41;96363.91;;;23.01;53.75
11268;BME280;72685;47.474;9.416;2023-09-30T11:29:11;96362.56;;;22.92;52.88
11268;BME280;72685;47.474;9.416;2023-09-30T11:31:40;96360.16;;;23.36;53.17
11268;BME280;72685;47.474;9.416;2023-09-30T11:34:07;96368.22;;;23.48;53.88
11268;BME280;72685;47.474;9.416;2023-09-30T11:36:37;96360.38;;;23.46;52.64
11268;BME280;72685;47.474;9.416;2023-09-30T11:39:03;96360.16;;;23.58;54.17
11268;BME280;72685;47.474;9.416;2023-09-30T11:41:33;96364.88;;;23.58;54.15
11268;BME280;72685;47.474;9.416;2023-09-30T11:44:01;96365.09;;;23.49;51.99
11268;BME280;72685;47.474;9.416;2023-09-30T11:46:27;96359.75;;;23.34;51.34
11268;BME280;72685;47.474;9.416;2023-09-30T11:48:58;96356.44;;;23.44;50.66
11268;BME280;72685;47.474;9.416;2023-09-30T11:51:25;96361.53;;;23.71;50.31
11268;BME280;72685;47.474;9.416;2023-09-30T11:53:55;96358.38;;;23.43;51.07
11268;BME280;72685;47.474;9.416;2023-09-30T11:56:21;96353.72;;;23.44;52.45
11268;BME280;72685;47.474;9.416;2023-09-30T11:58:53;96352.78;;;23.13;51.59
11268;BME280;72685;47.474;9.416;2023-09-30T12:01:19;96348.63;;;23.42;50.77
11268;BME280;72685;47.474;9.416;2023-09-30T12:03:50;96351.09;;;23.51;51.31
11268;BME280;72685;47.474;9.416;2023-09-30T12:06:17;96349.09;;;23.74;51.77
11268;BME280;72685;47.474;9.416;2023-09-30T12:08:43;96357.28;;;23.25;51.91
11268;BME280;72685;47.474;9.416;2023-09-30T12:11:08;96354.56;;;23.02;51.36
11268;BME280;72685;47.474;9.416;2023-09-30T12:13:38;96347.22;;;23.29;52.26
11268;BME280;72685;47.474;9.416;2023-09-30T12:16:03;96350.06;;;23.13;52.89
11268;BME280;72685;47.474;9.416;2023-09-30T12:18:29;96342.66;;;23.59;52.22
11268;BME280;72685;47.474;9.416;2023-09-30T12:20:54;96339.56;;;23.61;51.85
11268;BME280;72685;47.474;9.416;2023-09-30T12:23:20;96334.69;;;23.47;51.70
11268;BME280;72685;47.474;9.416;2023-09-30T12:25:48;96335.28;;;23.14;53.18
11268;BME280;72685;47.474;9.416;2023-09-30T12:28:13;96329.91;;;23.18;53.14
11268;BME280;72685;47.474;9.416;2023-09-30T12:30:40;96316.56;;;23.13;54.59
11268;BME280;72685;47.474;9.416;2023-09-30T12:33:07;96323.41;;;23.26;53.75
11268;BME280;72685;47.474;9.416;2023-09-30T12:35:32;96323.56;;;23.37;54.06
11268;BME280;72685;47.474;9.416;2023-09-30T12:37:58;96321.38;;;22.97;53.88
11268;BME280;72685;47.474;9.416;2023-09-30T12:40:24;96323.50;;;22.84;55.47
11268;BME280;72685;47.474;9.416;2023-09-30T12:42:49;96328.81;;;22.77;56.19
11268;BME280;72685;47.474;9.416;2023-09-30T12:45:15;96323.97;;;22.67;55.97
11268;BME280;72685;47.474;9.416;2023-09-30T12:47:42;96318.19;;;22.53;55.60
11268;BME280;72685;47.474;9.416;2023-09-30T12:50:07;96324.53;;;22.38;55.36
11268;BME280;72685;47.474;9.416;2023-09-30T12:52:36;96324.25;;;22.43;55.98
11268;BME280;72685;47.474;9.416;2023-09-30T12:55:03;96313.84;;;22.48;55.44
11268;BME280;72685;47.474;9.416;2023-09-30T12:57:30;96319.97;;;22.42;56.58
11268;BME280;72685;47.474;9.416;2023-09-30T12:59:55;96315.66;;;22.22;55.00
11268;BME280;72685;47.474;9.416;2023-09-30T13:02:20;96308.59;;;22.17;56.60
11268;BME280;72685;47.474;9.416;2023-09-30T13:04:46;96310.22;;;22.02;57.72
11268;BME280;72685;47.474;9.416;2023-09-30T13:07:12;96305.28;;;22.08;57.74
11268;BME280;72685;47.474;9.416;2023-09-30T13:09:38;96298.91;;;21.46;57.07
11268;BME280;72685;47.474;9.416;2023-09-30T13:12:04;96297.41;;;21.68;56.88
11268;BME280;72685;47.474;9.416;2023-09-30T13:14:30;96303.00;;;21.56;56.94
11268;BME280;72685;47.474;9.416;2023-09-30T13:16:55;96297.50;;;21.72;57.08